createdAt,value
2018-04-23T00:00:33.431Z,43.2
2018-04-23T00:01:34.795Z,43.2
2018-04-23T00:02:36.153Z,43.5
2018-04-23T00:03:37.509Z,43.5
2018-04-23T00:04:38.869Z,43.8
2018-04-23T00:05:40.251Z,43.8
2018-04-23T00:06:41.617Z,44.0
2018-04-23T00:07:42.979Z,44.2
2018-04-23T00:08:44.344Z,44.2
2018-04-23T00:09:45.710Z,44.3
2018-04-23T00:10:47.068Z,44.5
2018-04-23T00:11:48.431Z,44.4
2018-04-23T00:12:49.820Z,44.6
2018-04-23T00:13:51.152Z,44.2
2018-04-23T00:14:52.523Z,44.9
2018-04-23T00:15:53.875Z,44.9
2018-04-23T00:16:55.240Z,44.9
2018-04-23T00:17:56.603Z,45.2
2018-04-23T00:18:57.965Z,45.6
2018-04-23T00:19:59.326Z,45.4
2018-04-23T00:21:00.690Z,45.7
2018-04-23T00:22:02.047Z,45.8
2018-04-23T00:23:03.463Z,45.3
2018-04-23T00:24:04.782Z,45.2
2018-04-23T00:25:06.147Z,45.2
2018-04-23T00:26:07.509Z,45.0
2018-04-23T00:27:08.870Z,44.8
2018-04-23T00:28:10.252Z,45.1
2018-04-23T00:29:11.620Z,44.9
2018-04-23T00:30:12.976Z,44.8
2018-04-23T00:31:14.331Z,44.8
2018-04-23T00:32:15.695Z,44.9
2018-04-23T00:33:17.053Z,44.7
2018-04-23T00:34:18.409Z,44.9
2018-04-23T00:35:19.767Z,45.0
2018-04-23T00:36:21.130Z,44.9
2018-04-23T00:37:22.490Z,44.7
2018-04-23T00:38:23.844Z,45.0
2018-04-23T00:39:25.254Z,45.5
2018-04-23T00:40:26.571Z,45.8
2018-04-23T00:41:27.935Z,45.5
2018-04-23T00:42:29.293Z,45.8
2018-04-23T00:43:30.652Z,45.7
2018-04-23T00:44:32.007Z,45.4
2018-04-23T00:45:33.374Z,45.8
2018-04-23T00:46:34.726Z,45.8
2018-04-23T00:47:36.089Z,46.3
2018-04-23T00:48:37.448Z,46.1
2018-04-23T00:49:38.811Z,46.7
2018-04-23T00:50:40.174Z,47.4
2018-04-23T00:51:41.539Z,47.2
2018-04-23T00:52:42.897Z,47.2
2018-04-23T00:53:44.253Z,47.5
2018-04-23T00:54:45.617Z,47.9
2018-04-23T00:55:46.973Z,47.4
2018-04-23T00:56:48.336Z,47.6
2018-04-23T00:57:49.703Z,47.7
2018-04-23T00:58:51.060Z,48.0
2018-04-23T00:59:52.422Z,47.8
2018-04-23T01:00:53.782Z,47.7
2018-04-23T01:01:55.144Z,48.0
2018-04-23T01:02:56.505Z,47.7
2018-04-23T01:03:57.857Z,47.9
2018-04-23T01:04:59.225Z,48.1
2018-04-23T01:06:00.582Z,48.1
2018-04-23T01:07:01.939Z,48.2
2018-04-23T01:08:03.295Z,48.1
2018-04-23T01:09:04.650Z,48.7
2018-04-23T01:10:06.014Z,48.6
2018-04-23T01:11:07.381Z,49.3
2018-04-23T01:12:08.737Z,49.7
2018-04-23T01:13:10.091Z,49.7
2018-04-23T01:14:11.452Z,50.5
2018-04-23T01:15:12.815Z,50.3
2018-04-23T01:16:14.169Z,50.2
2018-04-23T01:17:15.532Z,50.0
2018-04-23T01:18:16.901Z,50.1
2018-04-23T01:19:18.256Z,50.0
2018-04-23T01:20:19.619Z,50.1
2018-04-23T01:21:20.973Z,50.1
2018-04-23T01:22:22.337Z,50.4
2018-04-23T01:23:23.690Z,50.1
2018-04-23T01:24:25.056Z,50.9
2018-04-23T01:25:26.408Z,51.0
2018-04-23T01:26:27.766Z,50.9
2018-04-23T01:27:29.123Z,50.8
2018-04-23T01:28:30.485Z,50.7
2018-04-23T01:29:31.843Z,50.7
2018-04-23T01:30:33.204Z,51.3
2018-04-23T01:31:34.570Z,51.1
2018-04-23T01:32:35.919Z,50.9
2018-04-23T01:33:37.313Z,51.2
2018-04-23T01:34:38.668Z,51.2
2018-04-23T01:35:40.037Z,51.5
2018-04-23T01:36:41.401Z,51.6
2018-04-23T01:37:42.758Z,51.4
2018-04-23T01:38:44.120Z,51.9
2018-04-23T01:39:45.477Z,52.4
2018-04-23T01:40:46.842Z,52.1
2018-04-23T01:41:48.200Z,52.1
2018-04-23T01:42:49.557Z,52.2
2018-04-23T01:43:50.914Z,52.4
2018-04-23T01:44:52.275Z,51.7
2018-04-23T01:45:53.634Z,51.8
2018-04-23T01:46:54.991Z,51.2
2018-04-23T01:47:56.356Z,51.2
2018-04-23T01:48:57.712Z,51.2
2018-04-23T01:49:59.067Z,51.3
2018-04-23T01:51:00.429Z,50.9
2018-04-23T01:52:01.790Z,50.8
2018-04-23T01:53:03.156Z,51.2
2018-04-23T01:54:04.515Z,51.7
2018-04-23T01:55:05.884Z,51.6
2018-04-23T01:56:07.237Z,51.6
2018-04-23T01:57:08.594Z,51.5
2018-04-23T01:58:10.032Z,51.5
2018-04-23T01:59:11.432Z,51.9
2018-04-23T02:00:13.640Z,52.1
2018-04-23T02:01:14.995Z,52.5
2018-04-23T02:02:16.357Z,52.4
2018-04-23T02:03:17.713Z,52.7
2018-04-23T02:04:19.074Z,52.6
2018-04-23T02:05:20.433Z,52.4
2018-04-23T02:06:21.796Z,52.3
2018-04-23T02:07:23.161Z,52.1
2018-04-23T02:08:24.527Z,53.1
2018-04-23T02:09:25.890Z,53.1
2018-04-23T02:10:27.254Z,53.0
2018-04-23T02:11:28.615Z,53.0
2018-04-23T02:12:29.977Z,52.9
2018-04-23T02:13:31.330Z,53.0
2018-04-23T02:14:32.695Z,53.0
2018-04-23T02:15:34.048Z,53.3
2018-04-23T02:16:35.423Z,53.4
2018-04-23T02:17:36.784Z,53.7
2018-04-23T02:18:38.165Z,53.7
2018-04-23T02:19:39.519Z,54.2
2018-04-23T02:20:40.879Z,54.2
2018-04-23T02:21:42.241Z,54.6
2018-04-23T02:22:43.609Z,54.7
2018-04-23T02:23:44.962Z,54.4
2018-04-23T02:24:46.318Z,54.4
2018-04-23T02:25:47.679Z,54.8
2018-04-23T02:26:49.038Z,55.3
2018-04-23T02:27:50.393Z,54.8
2018-04-23T02:28:51.764Z,55.8
2018-04-23T02:29:53.127Z,55.4
2018-04-23T02:30:54.494Z,55.4
2018-04-23T02:31:55.847Z,55.7
2018-04-23T02:32:57.207Z,55.5
2018-04-23T02:33:58.567Z,55.4
2018-04-23T02:34:59.930Z,55.3
2018-04-23T02:36:01.283Z,55.6
2018-04-23T02:37:02.647Z,55.8
2018-04-23T02:38:04.012Z,55.9
2018-04-23T02:39:05.373Z,55.4
2018-04-23T02:40:06.731Z,55.8
2018-04-23T02:41:08.116Z,54.9
2018-04-23T02:42:09.472Z,55.2
2018-04-23T02:43:10.835Z,55.5
2018-04-23T02:44:12.201Z,55.4
2018-04-23T02:45:13.559Z,55.8
2018-04-23T02:46:14.915Z,55.8
2018-04-23T02:47:16.283Z,55.2
2018-04-23T02:48:17.627Z,55.5
2018-04-23T02:49:18.991Z,55.3
2018-04-23T02:50:20.355Z,55.6
2018-04-23T02:51:21.715Z,55.6
2018-04-23T02:52:23.081Z,55.5
2018-04-23T02:53:24.442Z,55.2
2018-04-23T02:54:25.814Z,55.2
2018-04-23T02:55:27.164Z,55.4
2018-04-23T02:56:28.529Z,55.6
2018-04-23T02:57:29.887Z,55.7
2018-04-23T02:58:31.251Z,55.4
2018-04-23T02:59:32.615Z,55.5
2018-04-23T03:00:33.990Z,55.3
2018-04-23T03:01:35.346Z,55.6
2018-04-23T03:02:36.719Z,55.5
2018-04-23T03:03:38.076Z,55.3
2018-04-23T03:04:39.413Z,55.8
2018-04-23T03:05:40.782Z,54.8
2018-04-23T03:06:42.138Z,54.8
2018-04-23T03:07:43.496Z,54.4
2018-04-23T03:08:44.856Z,54.7
2018-04-23T03:09:46.213Z,54.7
2018-04-23T03:10:47.570Z,54.7
2018-04-23T03:11:48.934Z,54.6
2018-04-23T03:12:50.295Z,54.5
2018-04-23T03:13:51.660Z,54.8
2018-04-23T03:14:53.010Z,54.5
2018-04-23T03:15:54.376Z,54.5
2018-04-23T03:16:55.733Z,54.7
2018-04-23T03:17:57.866Z,54.5
2018-04-23T03:18:59.226Z,53.7
2018-04-23T03:20:00.591Z,53.6
2018-04-23T03:21:01.959Z,53.5
2018-04-23T03:22:03.320Z,53.2
2018-04-23T03:23:04.800Z,53.6
2018-04-23T03:24:06.170Z,53.3
2018-04-23T03:25:07.537Z,53.2
2018-04-23T03:26:08.896Z,52.7
2018-04-23T03:27:10.265Z,53.0
2018-04-23T03:28:11.629Z,52.7
2018-04-23T03:29:13.000Z,53.1
2018-04-23T03:30:14.368Z,53.2
2018-04-23T03:31:15.719Z,53.0
2018-04-23T03:32:17.081Z,53.1
2018-04-23T03:33:18.441Z,53.5
2018-04-23T03:34:19.797Z,53.8
2018-04-23T03:35:21.166Z,54.3
2018-04-23T03:36:22.528Z,54.9
2018-04-23T03:37:23.885Z,54.8
2018-04-23T03:38:25.244Z,54.5
2018-04-23T03:39:26.605Z,55.2
2018-04-23T03:40:28.000Z,55.0
2018-04-23T03:41:29.357Z,55.2
2018-04-23T03:42:30.719Z,55.0
2018-04-23T03:43:32.079Z,54.9
2018-04-23T03:44:33.443Z,55.1
2018-04-23T03:45:34.800Z,55.4
2018-04-23T03:46:36.159Z,55.4
2018-04-23T03:47:37.516Z,55.6
2018-04-23T03:48:38.882Z,55.4
2018-04-23T03:49:40.268Z,55.3
2018-04-23T03:50:41.643Z,56.2
2018-04-23T03:51:42.994Z,56.2
2018-04-23T03:52:44.361Z,56.2
2018-04-23T03:53:45.721Z,56.2
2018-04-23T03:54:47.084Z,56.4
2018-04-23T03:55:48.449Z,56.2
2018-04-23T03:56:49.813Z,56.5
2018-04-23T03:57:51.165Z,56.7
2018-04-23T03:58:52.525Z,56.7
2018-04-23T03:59:53.893Z,56.9
2018-04-23T04:00:55.255Z,56.6
2018-04-23T04:01:56.620Z,56.4
2018-04-23T04:02:57.977Z,56.6
2018-04-23T04:03:59.346Z,56.2
2018-04-23T04:05:00.708Z,56.7
2018-04-23T04:06:02.065Z,57.1
2018-04-23T04:07:03.429Z,56.9
2018-04-23T04:08:04.786Z,56.7
2018-04-23T04:09:06.152Z,56.5
2018-04-23T04:10:07.521Z,57.3
2018-04-23T04:11:08.879Z,57.3
2018-04-23T04:12:10.241Z,57.5
2018-04-23T04:13:11.605Z,57.7
2018-04-23T04:14:12.967Z,57.8
2018-04-23T04:15:14.338Z,57.8
2018-04-23T04:16:15.702Z,57.9
2018-04-23T04:17:17.058Z,57.9
2018-04-23T04:18:18.420Z,58.1
2018-04-23T04:19:19.782Z,58.3
2018-04-23T04:20:21.143Z,58.4
2018-04-23T04:21:22.508Z,58.3
2018-04-23T04:22:23.867Z,58.8
2018-04-23T04:23:25.232Z,58.7
2018-04-23T04:24:26.593Z,58.8
2018-04-23T04:25:27.958Z,59.0
2018-04-23T04:26:29.315Z,59.0
2018-04-23T04:27:30.677Z,59.2
2018-04-23T04:28:32.044Z,58.9
2018-04-23T04:29:33.410Z,58.6
2018-04-23T04:30:34.778Z,58.5
2018-04-23T04:31:36.299Z,58.6
2018-04-23T04:32:37.666Z,58.5
2018-04-23T04:33:39.024Z,58.4
2018-04-23T04:34:40.409Z,58.6
2018-04-23T04:35:41.808Z,58.1
2018-04-23T04:36:43.101Z,57.9
2018-04-23T04:37:44.471Z,57.8
2018-04-23T04:38:45.827Z,58.0
2018-04-23T04:39:47.191Z,57.5
2018-04-23T04:40:48.557Z,57.7
2018-04-23T04:41:49.918Z,57.5
2018-04-23T04:42:51.281Z,56.7
2018-04-23T04:43:52.690Z,57.2
2018-04-23T04:44:54.012Z,56.7
2018-04-23T04:45:55.389Z,56.5
2018-04-23T04:46:56.748Z,56.7
2018-04-23T04:47:58.106Z,56.5
2018-04-23T04:48:59.463Z,56.7
2018-04-23T04:50:00.835Z,56.4
2018-04-23T04:51:02.206Z,56.7
2018-04-23T04:52:03.569Z,56.6
2018-04-23T04:53:04.938Z,56.1
2018-04-23T04:54:06.307Z,56.1
2018-04-23T04:55:07.665Z,56.4
2018-04-23T04:56:09.033Z,56.5
2018-04-23T04:57:10.392Z,56.4
2018-04-23T04:58:11.767Z,56.4
2018-04-23T04:59:13.131Z,56.3
2018-04-23T05:00:14.503Z,56.3
2018-04-23T05:01:15.862Z,56.3
2018-04-23T05:02:17.229Z,56.3
2018-04-23T05:03:18.611Z,56.5
2018-04-23T05:04:19.977Z,56.5
2018-04-23T05:05:21.346Z,56.3
2018-04-23T05:06:22.707Z,56.5
2018-04-23T05:07:24.076Z,56.3
2018-04-23T05:08:25.445Z,56.3
2018-04-23T05:09:26.817Z,56.5
2018-04-23T05:10:28.221Z,56.2
2018-04-23T05:11:29.585Z,56.3
2018-04-23T05:12:30.946Z,56.5
2018-04-23T05:13:32.324Z,56.1
2018-04-23T05:14:33.691Z,55.7
2018-04-23T05:15:35.065Z,56.1
2018-04-23T05:16:36.442Z,56.5
2018-04-23T05:17:37.853Z,56.2
2018-04-23T05:18:39.216Z,56.1
2018-04-23T05:19:40.584Z,56.2
2018-04-23T05:20:41.955Z,56.3
2018-04-23T05:21:43.319Z,56.2
2018-04-23T05:22:44.687Z,56.4
2018-04-23T05:23:46.095Z,56.2
2018-04-23T05:24:47.439Z,56.4
2018-04-23T05:25:48.809Z,56.2
2018-04-23T05:26:50.175Z,56.1
2018-04-23T05:27:51.543Z,56.3
2018-04-23T05:28:52.931Z,56.3
2018-04-23T05:29:54.327Z,55.6
2018-04-23T05:30:55.670Z,55.2
2018-04-23T05:31:57.033Z,55.2
2018-04-23T05:32:58.399Z,55.4
2018-04-23T05:33:59.764Z,55.8
2018-04-23T05:35:01.134Z,55.2
2018-04-23T05:36:02.502Z,54.9
2018-04-23T05:37:03.863Z,54.9
2018-04-23T05:38:05.233Z,54.9
2018-04-23T05:39:06.623Z,54.9
2018-04-23T05:40:08.031Z,54.8
2018-04-23T05:41:09.419Z,55.1
2018-04-23T05:42:10.785Z,55.5
2018-04-23T05:43:12.214Z,55.4
2018-04-23T05:44:13.527Z,55.9
2018-04-23T05:45:14.877Z,55.1
2018-04-23T05:46:16.245Z,55.4
2018-04-23T05:47:17.614Z,55.1
2018-04-23T05:48:19.012Z,55.3
2018-04-23T05:49:20.381Z,55.5
2018-04-23T05:50:21.750Z,55.8
2018-04-23T05:51:23.120Z,56.4
2018-04-23T05:52:24.490Z,56.0
2018-04-23T05:53:25.851Z,56.5
2018-04-23T05:54:27.226Z,56.8
2018-04-23T05:55:28.602Z,56.8
2018-04-23T05:56:29.975Z,56.9
2018-04-23T05:57:31.350Z,56.8
2018-04-23T05:58:32.721Z,56.9
2018-04-23T05:59:34.095Z,56.8
2018-04-23T06:00:35.516Z,56.9
2018-04-23T06:01:36.900Z,57.4
2018-04-23T06:02:38.269Z,57.1
2018-04-23T06:03:39.641Z,57.3
2018-04-23T06:04:41.010Z,57.0
2018-04-23T06:05:42.376Z,57.4
2018-04-23T06:06:43.743Z,57.0
2018-04-23T06:07:45.115Z,57.8
2018-04-23T06:08:46.500Z,57.3
2018-04-23T06:09:47.856Z,57.1
2018-04-23T06:10:49.217Z,56.8
2018-04-23T06:11:50.587Z,56.9
2018-04-23T06:12:51.953Z,56.8
2018-04-23T06:13:53.324Z,56.3
2018-04-23T06:14:54.690Z,56.7
2018-04-23T06:15:56.062Z,56.5
2018-04-23T06:16:57.426Z,56.5
2018-04-23T06:17:58.800Z,56.4
2018-04-23T06:19:00.157Z,56.5
2018-04-23T06:20:01.521Z,56.9
2018-04-23T06:21:02.896Z,58.0
2018-04-23T06:22:04.265Z,58.8
2018-04-23T06:23:05.647Z,59.0
2018-04-23T06:24:07.007Z,60.3
2018-04-23T06:25:08.375Z,61.1
2018-04-23T06:26:09.744Z,62.2
2018-04-23T06:27:11.121Z,63.2
2018-04-23T06:28:12.512Z,64.1
2018-04-23T06:29:13.850Z,64.4
2018-04-23T06:30:15.216Z,65.2
2018-04-23T06:31:16.580Z,65.7
2018-04-23T06:32:17.939Z,66.0
2018-04-23T06:33:19.314Z,66.9
2018-04-23T06:34:20.703Z,68.0
2018-04-23T06:35:22.035Z,68.6
2018-04-23T06:36:23.397Z,69.6
2018-04-23T06:37:24.766Z,70.2
2018-04-23T06:38:26.130Z,70.9
2018-04-23T06:39:27.491Z,71.6
2018-04-23T06:40:28.847Z,71.6
2018-04-23T06:41:30.221Z,72.3
2018-04-23T06:42:31.580Z,72.6
2018-04-23T06:43:32.948Z,73.3
2018-04-23T06:44:34.428Z,73.0
2018-04-23T06:45:35.787Z,73.4
2018-04-23T06:46:37.223Z,73.2
2018-04-23T06:47:38.585Z,74.0
2018-04-23T06:48:39.960Z,73.8
2018-04-23T06:49:41.314Z,74.4
2018-04-23T06:50:42.693Z,74.9
2018-04-23T06:51:44.064Z,74.8
2018-04-23T06:52:45.430Z,75.4
2018-04-23T06:53:46.809Z,75.4
2018-04-23T06:54:48.175Z,75.8
2018-04-23T06:55:49.551Z,76.0
2018-04-23T06:56:50.905Z,76.6
2018-04-23T06:57:52.276Z,76.9
2018-04-23T06:58:53.650Z,77.2
2018-04-23T06:59:55.015Z,77.1
2018-04-23T07:00:56.376Z,77.7
2018-04-23T07:01:57.744Z,77.9
2018-04-23T07:02:59.117Z,77.9
2018-04-23T07:04:00.477Z,78.1
2018-04-23T07:05:01.909Z,78.1
2018-04-23T07:06:03.208Z,78.2
2018-04-23T07:07:04.581Z,79.2
2018-04-23T07:08:05.943Z,79.5
2018-04-23T07:09:07.317Z,79.1
2018-04-23T07:10:08.686Z,79.7
2018-04-23T07:11:10.052Z,79.8
2018-04-23T07:12:11.410Z,79.7
2018-04-23T07:13:12.781Z,80.1
2018-04-23T07:14:14.138Z,80.3
2018-04-23T07:15:15.510Z,79.9
2018-04-23T07:16:16.882Z,79.9
2018-04-23T07:17:18.249Z,79.9
2018-04-23T07:18:19.609Z,80.4
2018-04-23T07:19:20.978Z,80.6
2018-04-23T07:20:22.340Z,81.2
2018-04-23T07:21:23.715Z,81.7
2018-04-23T07:22:25.079Z,81.1
2018-04-23T07:23:26.438Z,81.1
2018-04-23T07:24:27.801Z,81.2
2018-04-23T07:25:29.172Z,81.1
2018-04-23T07:26:30.533Z,81.0
2018-04-23T07:27:31.909Z,81.3
2018-04-23T07:28:33.263Z,81.6
2018-04-23T07:29:34.633Z,81.2
2018-04-23T07:30:36.012Z,81.6
2018-04-23T07:31:37.371Z,81.9
2018-04-23T07:32:38.736Z,81.3
2018-04-23T07:33:40.102Z,81.7
2018-04-23T07:34:41.470Z,82.1
2018-04-23T07:35:42.824Z,81.8
2018-04-23T07:36:44.191Z,82.5
2018-04-23T07:37:45.553Z,82.4
2018-04-23T07:38:46.922Z,82.8
2018-04-23T07:39:48.284Z,82.6
2018-04-23T07:40:49.685Z,83.1
2018-04-23T07:41:51.013Z,83.1
2018-04-23T07:42:52.368Z,83.2
2018-04-23T07:43:53.737Z,83.6
2018-04-23T07:44:55.109Z,83.5
2018-04-23T07:45:56.467Z,84.0
2018-04-23T07:46:57.842Z,83.8
2018-04-23T07:47:59.209Z,83.8
2018-04-23T07:49:00.571Z,84.0
2018-04-23T07:50:01.942Z,84.1
2018-04-23T07:51:03.309Z,84.1
2018-04-23T07:52:04.671Z,84.0
2018-04-23T07:53:06.041Z,84.1
2018-04-23T07:54:07.431Z,84.0
2018-04-23T07:55:08.797Z,84.3
2018-04-23T07:56:10.162Z,84.4
2018-04-23T07:57:11.532Z,84.5
2018-04-23T07:58:12.890Z,84.7
2018-04-23T07:59:14.260Z,84.8
2018-04-23T08:00:15.620Z,84.7
2018-04-23T08:01:16.984Z,84.7
2018-04-23T08:02:18.352Z,85.1
2018-04-23T08:03:19.722Z,85.0
2018-04-23T08:04:21.081Z,85.5
2018-04-23T08:05:22.445Z,85.6
2018-04-23T08:06:23.813Z,85.4
2018-04-23T08:07:25.178Z,85.4
2018-04-23T08:08:26.557Z,85.4
2018-04-23T08:09:27.929Z,86.0
2018-04-23T08:10:29.290Z,85.4
2018-04-23T08:11:30.660Z,85.5
2018-04-23T08:12:32.024Z,85.8
2018-04-23T08:13:33.396Z,85.6
2018-04-23T08:14:34.757Z,85.6
2018-04-23T08:15:36.137Z,85.7
2018-04-23T08:16:37.535Z,85.9
2018-04-23T08:17:38.908Z,85.9
2018-04-23T08:18:40.270Z,85.9
2018-04-23T08:19:41.696Z,86.1
2018-04-23T08:20:43.004Z,86.0
2018-04-23T08:21:44.375Z,85.4
2018-04-23T08:22:45.740Z,85.7
2018-04-23T08:23:47.118Z,86.1
2018-04-23T08:24:50.385Z,85.9
2018-04-23T08:25:51.754Z,86.1
2018-04-23T08:26:53.136Z,85.9
2018-04-23T08:27:54.504Z,85.9
2018-04-23T08:28:55.871Z,85.7
2018-04-23T08:29:57.240Z,85.7
2018-04-23T08:30:58.615Z,86.0
2018-04-23T08:31:59.991Z,85.7
2018-04-23T08:33:01.341Z,86.3
2018-04-23T08:34:02.707Z,85.7
2018-04-23T08:35:04.091Z,86.4
2018-04-23T08:36:05.450Z,86.3
2018-04-23T08:37:06.817Z,86.1
2018-04-23T08:38:08.184Z,86.5
2018-04-23T08:39:09.552Z,86.5
2018-04-23T08:40:10.921Z,86.3
2018-04-23T08:41:12.284Z,86.7
2018-04-23T08:42:13.657Z,86.5
2018-04-23T08:43:15.022Z,86.7
2018-04-23T08:44:16.383Z,86.5
2018-04-23T08:45:17.742Z,86.5
2018-04-23T08:46:19.113Z,87.0
2018-04-23T08:47:20.662Z,87.2
2018-04-23T08:48:21.798Z,86.2
2018-04-23T08:49:23.167Z,86.8
2018-04-23T08:50:24.547Z,86.7
2018-04-23T08:51:25.897Z,87.0
2018-04-23T08:52:27.261Z,86.7
2018-04-23T08:53:28.630Z,87.1
2018-04-23T08:54:29.995Z,87.0
2018-04-23T08:55:31.358Z,86.7
2018-04-23T08:56:32.730Z,86.5
2018-04-23T08:57:34.094Z,86.7
2018-04-23T08:58:35.454Z,86.8
2018-04-23T08:59:36.818Z,86.8
2018-04-23T09:00:38.258Z,87.0
2018-04-23T09:01:39.629Z,86.5
2018-04-23T09:02:40.988Z,86.7
2018-04-23T09:03:42.357Z,86.5
2018-04-23T09:04:43.727Z,86.5
2018-04-23T09:05:45.095Z,87.3
2018-04-23T09:06:46.454Z,87.3
2018-04-23T09:07:47.825Z,86.6
2018-04-23T09:08:49.199Z,86.4
2018-04-23T09:09:50.571Z,86.5
2018-04-23T09:10:51.935Z,86.5
2018-04-23T09:11:53.321Z,87.3
2018-04-23T09:12:54.699Z,87.3
2018-04-23T09:13:56.084Z,86.2
2018-04-23T09:14:57.452Z,87.1
2018-04-23T09:15:58.813Z,86.5
2018-04-23T09:17:00.183Z,86.6
2018-04-23T09:18:01.776Z,86.2
2018-04-23T09:19:03.144Z,86.5
2018-04-23T09:20:04.507Z,86.3
2018-04-23T09:21:05.893Z,86.1
2018-04-23T09:22:07.261Z,85.9
2018-04-23T09:23:08.673Z,85.9
2018-04-23T09:24:10.042Z,86.2
2018-04-23T09:25:11.410Z,85.6
2018-04-23T09:26:12.780Z,85.6
2018-04-23T09:27:14.152Z,85.1
2018-04-23T09:28:15.524Z,85.2
2018-04-23T09:29:16.898Z,85.5
2018-04-23T09:30:18.265Z,85.2
2018-04-23T09:31:19.642Z,84.7
2018-04-23T09:32:21.017Z,84.8
2018-04-23T09:33:22.390Z,84.8
2018-04-23T09:34:23.771Z,85.0
2018-04-23T09:35:25.146Z,84.5
2018-04-23T09:36:26.515Z,84.5
2018-04-23T09:37:27.884Z,84.1
2018-04-23T09:38:29.258Z,84.3
2018-04-23T09:39:30.632Z,83.8
2018-04-23T09:40:32.011Z,83.7
2018-04-23T09:41:33.387Z,83.3
2018-04-23T09:42:34.756Z,83.1
2018-04-23T09:43:36.151Z,82.9
2018-04-23T09:44:37.561Z,82.3
2018-04-23T09:45:38.939Z,81.9
2018-04-23T09:46:40.322Z,81.5
2018-04-23T09:47:41.705Z,82.1
2018-04-23T09:48:43.077Z,82.4
2018-04-23T09:49:44.455Z,81.6
2018-04-23T09:50:45.829Z,81.4
2018-04-23T09:51:47.206Z,81.0
2018-04-23T09:52:48.598Z,80.7
2018-04-23T09:53:49.975Z,80.6
2018-04-23T09:54:51.348Z,80.4
2018-04-23T09:55:52.722Z,80.4
2018-04-23T09:56:54.090Z,80.6
2018-04-23T09:57:55.499Z,80.2
2018-04-23T09:58:56.892Z,80.8
2018-04-23T09:59:58.258Z,80.0
2018-04-23T10:00:59.643Z,80.2
2018-04-23T10:02:01.021Z,79.6
2018-04-23T10:03:02.437Z,79.3
2018-04-23T10:04:03.813Z,79.3
2018-04-23T10:05:05.865Z,78.8
2018-04-23T10:06:07.328Z,79.5
2018-04-23T10:07:08.651Z,79.5
2018-04-23T10:08:10.027Z,79.2
2018-04-23T10:09:11.411Z,79.1
2018-04-23T10:10:12.787Z,78.8
2018-04-23T10:11:14.168Z,78.3
2018-04-23T10:12:15.556Z,78.3
2018-04-23T10:13:16.936Z,78.3
2018-04-23T10:14:18.315Z,78.1
2018-04-23T10:15:19.691Z,78.3
2018-04-23T10:16:21.078Z,78.1
2018-04-23T10:17:22.470Z,77.8
2018-04-23T10:18:23.850Z,77.4
2018-04-23T10:19:25.232Z,77.3
2018-04-23T10:20:26.618Z,77.2
2018-04-23T10:21:28.002Z,76.8
2018-04-23T10:22:29.380Z,76.2
2018-04-23T10:23:30.769Z,76.0
2018-04-23T10:24:32.150Z,76.1
2018-04-23T10:25:33.528Z,75.2
2018-04-23T10:26:34.916Z,75.5
2018-04-23T10:27:36.296Z,75.5
2018-04-23T10:28:37.680Z,75.5
2018-04-23T10:29:39.062Z,75.3
2018-04-23T10:30:40.453Z,74.7
2018-04-23T10:31:41.825Z,75.1
2018-04-23T10:32:43.213Z,74.5
2018-04-23T10:33:44.599Z,74.5
2018-04-23T10:34:45.982Z,74.3
2018-04-23T10:35:47.365Z,74.2
2018-04-23T10:36:48.751Z,74.6
2018-04-23T10:37:50.141Z,74.2
2018-04-23T10:38:51.538Z,74.4
2018-04-23T10:39:52.921Z,74.5
2018-04-23T10:40:54.382Z,74.4
2018-04-23T10:41:55.753Z,74.1
2018-04-23T10:42:57.142Z,74.4
2018-04-23T10:43:58.525Z,74.3
2018-04-23T10:44:59.910Z,74.1
2018-04-23T10:46:01.291Z,74.0
2018-04-23T10:47:02.660Z,74.2
2018-04-23T10:48:04.050Z,74.0
2018-04-23T10:49:05.498Z,74.0
2018-04-23T10:50:06.899Z,73.3
2018-04-23T10:51:08.345Z,73.5
2018-04-23T10:52:09.671Z,73.9
2018-04-23T10:53:11.044Z,73.8
2018-04-23T10:54:12.419Z,73.6
2018-04-23T10:55:13.797Z,73.2
2018-04-23T10:56:15.187Z,73.2
2018-04-23T10:57:16.559Z,73.1
2018-04-23T10:58:17.966Z,73.3
2018-04-23T10:59:19.346Z,73.3
2018-04-23T11:00:20.735Z,73.2
2018-04-23T11:01:22.098Z,73.8
2018-04-23T11:02:23.474Z,73.5
2018-04-23T11:03:24.851Z,73.4
2018-04-23T11:04:26.240Z,73.2
2018-04-23T11:05:27.620Z,73.3
2018-04-23T11:06:29.025Z,73.2
2018-04-23T11:07:30.400Z,72.8
2018-04-23T11:08:31.774Z,73.0
2018-04-23T11:09:33.150Z,72.9
2018-04-23T11:10:34.527Z,72.7
2018-04-23T11:11:36.262Z,72.2
2018-04-23T11:12:37.646Z,72.2
2018-04-23T11:13:39.021Z,71.5
2018-04-23T11:14:40.401Z,71.4
2018-04-23T11:15:41.780Z,71.0
2018-04-23T11:16:43.148Z,71.4
2018-04-23T11:17:44.527Z,71.4
2018-04-23T11:18:45.916Z,71.6
2018-04-23T11:19:47.290Z,71.3
2018-04-23T11:20:48.677Z,71.4
2018-04-23T11:21:50.049Z,70.9
2018-04-23T11:22:51.429Z,71.0
2018-04-23T11:23:52.812Z,70.1
2018-04-23T11:24:54.189Z,70.3
2018-04-23T11:25:55.573Z,70.4
2018-04-23T11:26:56.965Z,70.1
2018-04-23T11:27:58.331Z,70.5
2018-04-23T11:28:59.704Z,70.3
2018-04-23T11:30:01.083Z,70.0
2018-04-23T11:31:02.457Z,69.9
2018-04-23T11:32:03.838Z,70.1
2018-04-23T11:33:05.212Z,70.0
2018-04-23T11:34:06.657Z,69.9
2018-04-23T11:35:08.034Z,70.0
2018-04-23T11:36:09.419Z,70.0
2018-04-23T11:37:10.801Z,70.4
2018-04-23T11:38:12.176Z,69.9
2018-04-23T11:39:13.555Z,70.3
2018-04-23T11:40:14.924Z,70.7
2018-04-23T11:41:16.317Z,70.6
2018-04-23T11:42:17.681Z,70.9
2018-04-23T11:43:19.072Z,71.2
2018-04-23T11:44:20.433Z,71.2
2018-04-23T11:45:21.822Z,70.8
2018-04-23T11:46:23.200Z,70.9
2018-04-23T11:47:24.579Z,70.7
2018-04-23T11:48:25.948Z,71.0
2018-04-23T11:49:27.324Z,71.2
2018-04-23T11:50:28.701Z,71.0
2018-04-23T11:51:30.082Z,70.6
2018-04-23T11:52:31.459Z,71.0
2018-04-23T11:53:32.845Z,71.1
2018-04-23T11:54:34.218Z,70.6
2018-04-23T11:55:36.406Z,70.9
2018-04-23T11:56:37.745Z,70.9
2018-04-23T11:57:39.121Z,71.0
2018-04-23T11:58:40.488Z,70.6
2018-04-23T11:59:41.861Z,69.9
2018-04-23T12:00:43.246Z,70.4
2018-04-23T12:01:44.625Z,70.3
2018-04-23T12:02:46.011Z,70.1
2018-04-23T12:03:47.383Z,69.9
2018-04-23T12:04:48.766Z,70.1
2018-04-23T12:05:50.138Z,69.6
2018-04-23T12:06:51.507Z,69.6
2018-04-23T12:07:52.883Z,69.6
2018-04-23T12:08:54.255Z,69.8
2018-04-23T12:09:55.634Z,69.9
2018-04-23T12:10:57.018Z,69.7
2018-04-23T12:11:58.382Z,69.2
2018-04-23T12:12:59.760Z,68.8
2018-04-23T12:14:01.143Z,69.3
2018-04-23T12:15:02.522Z,69.1
2018-04-23T12:16:03.901Z,68.9
2018-04-23T12:17:06.080Z,68.7
2018-04-23T12:18:07.476Z,68.4
2018-04-23T12:19:08.857Z,68.2
2018-04-23T12:20:10.236Z,67.9
2018-04-23T12:21:11.609Z,68.6
2018-04-23T12:22:12.984Z,68.3
2018-04-23T12:23:14.903Z,68.3
2018-04-23T12:24:15.695Z,68.5
2018-04-23T12:25:17.077Z,68.4
2018-04-23T12:26:18.479Z,68.4
2018-04-23T12:27:19.855Z,68.5
2018-04-23T12:28:21.230Z,68.7
2018-04-23T12:29:22.612Z,68.4
2018-04-23T12:30:23.982Z,68.1
2018-04-23T12:31:25.406Z,68.0
2018-04-23T12:32:26.745Z,67.8
2018-04-23T12:33:28.118Z,68.0
2018-04-23T12:34:29.487Z,67.8
2018-04-23T12:35:30.866Z,68.0
2018-04-23T12:36:32.245Z,67.6
2018-04-23T12:37:33.662Z,67.4
2018-04-23T12:38:35.040Z,67.5
2018-04-23T12:39:36.415Z,67.2
2018-04-23T12:40:37.804Z,67.1
2018-04-23T12:41:39.173Z,67.1
2018-04-23T12:42:40.553Z,66.7
2018-04-23T12:43:41.940Z,66.8
2018-04-23T12:44:43.321Z,66.2
2018-04-23T12:45:44.703Z,66.4
2018-04-23T12:46:46.096Z,65.9
2018-04-23T12:47:47.467Z,65.8
2018-04-23T12:48:48.837Z,65.5
2018-04-23T12:49:50.217Z,65.3
2018-04-23T12:50:51.596Z,65.1
2018-04-23T12:51:52.977Z,64.9
2018-04-23T12:52:54.372Z,65.0
2018-04-23T12:53:55.747Z,65.1
2018-04-23T12:54:57.144Z,64.7
2018-04-23T12:55:58.531Z,64.6
2018-04-23T12:56:59.912Z,65.4
2018-04-23T12:58:01.293Z,65.3
2018-04-23T12:59:02.680Z,65.3
2018-04-23T13:00:04.059Z,65.9
2018-04-23T13:01:05.437Z,65.9
2018-04-23T13:02:06.809Z,65.7
2018-04-23T13:03:08.312Z,65.2
2018-04-23T13:04:09.689Z,65.1
2018-04-23T13:05:11.080Z,65.1
2018-04-23T13:06:12.465Z,66.0
2018-04-23T13:07:13.845Z,65.9
2018-04-23T13:08:15.224Z,66.3
2018-04-23T13:09:16.606Z,65.9
2018-04-23T13:10:17.991Z,66.3
2018-04-23T13:11:19.354Z,66.4
2018-04-23T13:12:20.776Z,66.0
2018-04-23T13:13:22.144Z,65.2
2018-04-23T13:14:23.537Z,65.2
2018-04-23T13:15:24.929Z,65.6
2018-04-23T13:16:26.316Z,65.6
2018-04-23T13:17:27.726Z,65.5
2018-04-23T13:18:29.148Z,65.3
2018-04-23T13:19:30.457Z,65.2
2018-04-23T13:20:31.833Z,64.9
2018-04-23T13:21:33.212Z,65.9
2018-04-23T13:22:34.598Z,65.9
2018-04-23T13:23:36.757Z,65.7
2018-04-23T13:24:38.224Z,66.0
2018-04-23T13:25:39.597Z,65.9
2018-04-23T13:26:40.977Z,65.2
2018-04-23T13:27:42.355Z,65.4
2018-04-23T13:28:43.735Z,65.3
2018-04-23T13:29:45.113Z,65.1
2018-04-23T13:30:46.495Z,64.7
2018-04-23T13:31:47.878Z,65.0
2018-04-23T13:32:49.258Z,65.3
2018-04-23T13:33:50.627Z,65.3
2018-04-23T13:34:52.012Z,65.5
2018-04-23T13:35:53.393Z,65.1
2018-04-23T13:36:54.777Z,64.9